Time;durP1;ratioP1;P1;durP2;ratioP2;P2;SDS_P1;SDS_P2;PMS_P1;PMS_P2;Temp;Humidity;BMP_temperature;BMP_pressure;BME280_temperature;BME280_humidity;BME280_pressure;Samples;Min_cycle;Max_cycle;Signal;HPM_P1;HPM_P2
2024/03/08 06:46:05;;;;;;;30.50;15.40;;;;;;;-2.92;100.00;101638.09;6208270;23;20097;-91
2024/03/08 06:48:32;;;;;;;33.07;15.77;;;;;;;-2.77;100.00;101641.44;6157200;23;20021;-91
2024/03/08 06:51:01;;;;;;;39.37;18.13;;;;;;;-2.65;100.00;101639.44;6157739;23;20020;-91
2024/03/08 06:53:29;;;;;;;36.40;16.93;;;;;;;-2.63;100.00;101642.09;6159384;23;20031;-90
2024/03/08 06:55:57;;;;;;;37.57;16.80;;;;;;;-2.55;100.00;101640.75;6183581;22;20025;-92
2024/03/08 06:58:24;;;;;;;34.80;16.47;;;;;;;-2.56;100.00;101650.22;6133524;23;20455;-92
2024/03/08 07:00:52;;;;;;;31.67;16.40;;;;;;;-2.50;100.00;101648.75;6183044;23;20338;-91
2024/03/08 07:03:21;;;;;;;32.73;16.87;;;;;;;-2.45;100.00;101655.03;6156458;22;20336;-91
2024/03/08 07:05:49;;;;;;;36.57;18.23;;;;;;;-2.33;100.00;101651.34;6157544;23;20021;-91
2024/03/08 07:08:18;;;;;;;34.17;17.30;;;;;;;-2.31;100.00;101649.69;6158021;23;20024;-91
2024/03/08 07:13:58;;;;;;;34.43;16.90;;;;;;;-2.22;100.00;101650.94;6190837;22;20121;-91
2024/03/08 07:16:39;;;;;;;34.67;15.60;;;;;;;-2.21;100.00;101650.13;6156508;23;20024;-91
2024/03/08 07:19:40;;;;;;;39.30;18.30;;;;;;;-2.07;100.00;101643.91;6138030;23;20340;-92
2024/03/08 07:22:19;;;;;;;35.57;18.03;;;;;;;-1.95;100.00;101657.41;6165346;23;20388;-90
2024/03/08 07:27:13;;;;;;;40.13;18.07;;;;;;;-1.52;100.00;101644.66;6185537;23;20016;-91
2024/03/08 07:29:41;;;;;;;34.30;17.77;;;;;;;-1.46;100.00;101636.28;6184770;23;20050;-91
2024/03/08 07:32:20;;;;;;;34.60;16.87;;;;;;;-1.41;100.00;101637.38;6159989;23;20017;-91
2024/03/08 07:34:55;;;;;;;34.23;17.73;;;;;;;-1.23;100.00;101640.75;6161172;23;20051;-90
2024/03/08 07:37:28;;;;;;;39.80;17.33;;;;;;;-0.93;100.00;101638.56;6164523;23;20081;-92
2024/03/08 07:39:55;;;;;;;35.53;17.23;;;;;;;-0.90;100.00;101633.53;6160033;23;20350;-91
2024/03/08 07:42:23;;;;;;;37.70;19.07;;;;;;;-0.78;100.00;101634.84;6158916;23;20032;-90
2024/03/08 07:44:50;;;;;;;33.57;17.37;;;;;;;-0.56;100.00;101627.09;6208381;23;20016;-91
2024/03/08 07:47:18;;;;;;;40.23;19.30;;;;;;;-0.29;100.00;101629.91;6158577;23;20025;-91
2024/03/08 07:49:48;;;;;;;34.50;18.37;;;;;;;-0.11;100.00;101625.41;6135445;23;20028;-91
2024/03/08 07:52:17;;;;;;;43.83;21.47;;;;;;;0.31;100.00;101625.25;6183350;23;20047;-92
2024/03/08 07:54:45;;;;;;;38.33;19.37;;;;;;;0.52;100.00;101625.16;6133842;23;20024;-91
2024/03/08 07:57:12;;;;;;;33.10;18.73;;;;;;;0.83;100.00;101621.88;6163625;22;20020;-92
2024/03/08 07:59:39;;;;;;;37.30;18.50;;;;;;;1.06;100.00;101620.94;6157844;23;20047;-92
2024/03/08 08:02:07;;;;;;;40.13;20.27;;;;;;;1.15;100.00;101615.16;6157712;23;20028;-91
2024/03/08 08:04:34;;;;;;;36.13;19.13;;;;;;;1.36;100.00;101617.59;6182896;23;20024;-92
2024/03/08 08:07:02;;;;;;;35.00;19.20;;;;;;;1.64;100.00;101612.41;6209863;23;20020;-90
2024/03/08 08:09:34;;;;;;;36.57;17.83;;;;;;;1.86;100.00;101607.88;6158728;23;20028;-92
2024/03/08 08:12:03;;;;;;;32.93;18.07;;;;;;;2.20;100.00;101604.53;6183919;22;20066;-90
2024/03/08 08:14:30;;;;;;;35.23;18.53;;;;;;;2.42;100.00;101601.66;6183069;23;20025;-91
2024/03/08 08:17:03;;;;;;;35.73;17.63;;;;;;;2.65;100.00;101598.78;6157995;23;20025;-91
2024/03/08 08:19:31;;;;;;;32.90;18.60;;;;;;;2.74;97.46;101596.44;6182187;22;20103;-90
2024/03/08 08:21:59;;;;;;;33.87;18.47;;;;;;;2.96;93.80;101596.16;6158644;23;20355;-90
2024/03/08 08:24:26;;;;;;;30.53;16.80;;;;;;;3.15;91.10;101597.50;6158661;23;20074;-91
2024/03/08 08:26:54;;;;;;;30.37;17.37;;;;;;;3.43;91.91;101598.16;6159896;23;20028;-93
2024/03/08 08:29:22;;;;;;;32.97;16.87;;;;;;;3.70;90.89;101593.56;6183316;23;20065;-92
2024/03/08 08:31:50;;;;;;;33.10;16.50;;;;;;;3.79;84.98;101585.06;6158698;23;20041;-92
2024/03/08 08:34:19;;;;;;;28.83;17.17;;;;;;;4.08;85.75;101578.69;6183351;23;20393;-92
2024/03/08 08:36:46;;;;;;;31.20;16.77;;;;;;;4.23;83.73;101581.63;6158935;23;20020;-92
2024/03/08 08:39:13;;;;;;;31.20;17.30;;;;;;;4.39;85.30;101580.22;6182812;23;20020;-93
2024/03/08 08:41:42;;;;;;;32.60;15.60;;;;;;;4.47;77.92;101562.03;6134419;23;20012;-93
2024/03/08 08:44:10;;;;;;;30.03;15.37;;;;;;;4.63;83.03;101565.81;6159220;23;20036;-92
2024/03/08 08:46:42;;;;;;;28.90;16.42;;;;;;;4.88;79.99;101554.06;6184119;23;20024;-91
2024/03/08 08:49:15;;;;;;;27.17;15.90;;;;;;;5.02;77.07;101555.13;6157956;23;20046;-91
2024/03/08 08:51:49;;;;;;;27.50;16.60;;;;;;;5.27;78.18;101556.41;6159704;23;20024;-90
2024/03/08 08:54:17;;;;;;;30.17;15.65;;;;;;;5.43;70.14;101547.94;6184243;23;20025;-90
2024/03/08 08:56:49;;;;;;;31.10;15.53;;;;;;;5.40;71.42;101547.00;6161895;23;20448;-90
2024/03/08 08:59:19;;;;;;;28.63;15.27;;;;;;;5.49;67.91;101548.03;6157901;23;20047;-91
2024/03/08 09:01:51;;;;;;;29.60;15.57;;;;;;;5.80;67.68;101543.19;6135666;23;20039;-90
2024/03/08 09:04:19;;;;;;;27.13;15.57;;;;;;;6.04;69.69;101538.28;6183228;23;20070;-90
2024/03/08 09:06:46;;;;;;;25.00;14.37;;;;;;;6.23;66.37;101538.53;6157286;23;20040;-89
2024/03/08 09:09:13;;;;;;;23.60;13.93;;;;;;;6.09;68.16;101536.59;6157459;23;20506;-90
2024/03/08 09:11:42;;;;;;;22.00;14.00;;;;;;;6.37;66.72;101526.41;6157770;23;20386;-90
2024/03/08 09:14:11;;;;;;;23.73;14.07;;;;;;;6.30;63.78;101519.34;6182848;23;20020;-90
2024/03/08 09:16:39;;;;;;;22.93;12.57;;;;;;;6.36;61.07;101524.66;6158412;23;20020;-92
2024/03/08 09:19:06;;;;;;;23.10;12.87;;;;;;;6.62;60.98;101523.16;6182306;23;20087;-90
2024/03/08 09:21:36;;;;;;;23.83;13.60;;;;;;;6.61;60.76;101517.91;6133620;23;20059;-91
2024/03/08 09:24:04;;;;;;;22.00;12.77;;;;;;;6.70;59.53;101521.50;6183370;23;20024;-91
2024/03/08 09:26:33;;;;;;;23.97;12.80;;;;;;;6.93;62.32;101526.06;6181999;23;20020;-91
2024/03/08 09:29:00;;;;;;;24.30;13.63;;;;;;;7.15;59.94;101509.63;6208435;23;20396;-93
2024/03/08 09:31:27;;;;;;;21.73;12.33;;;;;;;7.26;56.44;101505.31;6158394;23;20100;-91
2024/03/08 09:33:54;;;;;;;23.03;11.77;;;;;;;7.26;55.80;101505.31;6133285;23;20103;-91
2024/03/08 09:36:21;;;;;;;21.03;13.50;;;;;;;7.51;56.86;101506.34;6133503;23;20020;-91
2024/03/08 09:38:50;;;;;;;21.30;12.20;;;;;;;7.66;54.69;101499.41;6182732;23;20069;-91
2024/03/08 09:41:17;;;;;;;20.93;11.93;;;;;;;7.70;54.89;101502.03;6183158;23;20021;-91
2024/03/08 09:43:45;;;;;;;26.30;12.90;;;;;;;7.65;53.11;101498.53;6182735;23;20027;-91
2024/03/08 09:46:14;;;;;;;24.00;12.73;;;;;;;7.77;53.00;101498.56;6154956;23;20025;-90
2024/03/08 10:58:19;;;;;;;18.40;12.13;;;;;;;9.36;49.96;101405.63;6091777;23;20033;-90
2024/03/08 12:34:16;;;;;;;19.25;10.30;;;;;;;9.48;44.11;101297.41;6097978;23;20099;-92
